Time;durP1;ratioP1;P1;durP2;ratioP2;P2;SDS_P1;SDS_P2;PMS_P1;PMS_P2;Temp;Humidity;BMP_temperature;BMP_pressure;BME280_temperature;BME280_humidity;BME280_pressure;Samples;Min_cycle;Max_cycle;Signal;HPM_P1;HPM_P2
2020/12/07 00:01:59;;;;;;;48.77;33.30;;;5.40;97.10;;;;;;5035322;28;20442;-73
2020/12/07 00:04:25;;;;;;;53.23;34.77;;;5.40;97.20;;;;;;5035088;28;20482;-73
2020/12/07 00:06:53;;;;;;;51.80;36.37;;;5.40;97.30;;;;;;5035062;28;20489;-73
2020/12/07 00:09:19;;;;;;;48.97;34.67;;;5.30;97.20;;;;;;5035044;28;20446;-73
2020/12/07 00:11:48;;;;;;;50.13;35.57;;;5.40;97.20;;;;;;5035058;28;20423;-73
2020/12/07 00:14:14;;;;;;;51.27;33.50;;;5.30;97.10;;;;;;5034755;28;20442;-73
2020/12/07 00:16:43;;;;;;;47.97;32.80;;;5.30;97.10;;;;;;5034330;28;20828;-73
2020/12/07 00:19:10;;;;;;;49.17;32.80;;;5.30;97.10;;;;;;5034928;28;20426;-73
2020/12/07 00:21:36;;;;;;;45.17;32.80;;;5.30;97.20;;;;;;5034576;28;20451;-73
2020/12/07 00:24:03;;;;;;;43.10;31.00;;;5.30;97.20;;;;;;5034419;28;20485;-73
2020/12/07 00:26:29;;;;;;;48.90;31.80;;;5.20;97.30;;;;;;5034382;28;20546;-73
2020/12/07 00:28:58;;;;;;;45.87;31.13;;;5.20;97.40;;;;;;5034378;28;20454;-73
2020/12/07 00:31:25;;;;;;;46.13;31.17;;;5.20;97.40;;;;;;5034314;28;20430;-73
2020/12/07 00:33:52;;;;;;;46.17;31.17;;;5.10;97.50;;;;;;5034511;28;20439;-73
2020/12/07 00:36:18;;;;;;;41.77;31.67;;;5.10;97.60;;;;;;5034053;28;20478;-73
2020/12/07 00:38:44;;;;;;;46.13;30.30;;;5.20;97.70;;;;;;5034140;28;20438;-73
2020/12/07 00:41:11;;;;;;;47.03;32.87;;;5.20;97.70;;;;;;5034177;28;20445;-73
2020/12/07 00:43:38;;;;;;;45.13;30.73;;;5.20;97.70;;;;;;5033891;28;20932;-73
2020/12/07 00:46:04;;;;;;;49.17;31.60;;;5.20;97.90;;;;;;5034043;28;20509;-73
2020/12/07 00:48:30;;;;;;;43.37;30.47;;;5.10;97.50;;;;;;5034088;28;20459;-73
2020/12/07 00:50:56;;;;;;;44.17;30.60;;;5.10;97.60;;;;;;5034070;28;20799;-73
2020/12/07 00:53:23;;;;;;;41.33;28.90;;;5.20;97.60;;;;;;5034087;28;20465;-73
2020/12/07 00:55:49;;;;;;;40.63;30.30;;;5.10;97.60;;;;;;5034148;28;20444;-73
2020/12/07 00:58:16;;;;;;;44.47;31.97;;;5.10;97.60;;;;;;5033869;28;20496;-73
2020/12/07 01:00:42;;;;;;;41.20;30.27;;;5.10;97.70;;;;;;5033931;28;20450;-73
2020/12/07 01:03:08;;;;;;;42.53;29.13;;;5.10;97.80;;;;;;5034068;28;20447;-73
2020/12/07 01:05:34;;;;;;;45.03;31.27;;;5.10;97.70;;;;;;5033682;28;20486;-73
2020/12/07 01:08:01;;;;;;;40.20;28.63;;;5.10;97.70;;;;;;5033196;28;20474;-73
2020/12/07 01:10:27;;;;;;;44.80;30.77;;;5.10;97.80;;;;;;5033718;28;20429;-73
2020/12/07 01:12:53;;;;;;;44.40;29.70;;;5.10;97.80;;;;;;5033678;28;20446;-73
2020/12/07 01:15:20;;;;;;;45.83;31.30;;;5.00;97.80;;;;;;5033572;28;20447;-73
2020/12/07 01:17:46;;;;;;;42.33;30.17;;;5.00;97.80;;;;;;5033532;28;20471;-73
2020/12/07 01:20:12;;;;;;;38.83;28.57;;;5.00;97.80;;;;;;5033294;28;20942;-73
2020/12/07 01:22:39;;;;;;;41.33;30.43;;;5.00;97.90;;;;;;5033292;28;20932;-73
2020/12/07 01:25:05;;;;;;;41.80;29.23;;;5.00;97.90;;;;;;5033816;28;20478;-73
2020/12/07 01:27:31;;;;;;;40.23;29.27;;;5.00;98.00;;;;;;5033296;28;20458;-73
2020/12/07 01:29:57;;;;;;;42.67;28.70;;;5.00;98.00;;;;;;5033513;28;20439;-73
2020/12/07 01:32:24;;;;;;;42.07;30.90;;;5.00;98.00;;;;;;5033496;28;20438;-73
2020/12/07 01:34:50;;;;;;;42.33;30.63;;;5.00;98.00;;;;;;5033321;28;20438;-73
2020/12/07 01:37:17;;;;;;;41.37;28.37;;;5.00;97.90;;;;;;5033354;28;20822;-73
2020/12/07 01:39:43;;;;;;;40.07;30.20;;;5.00;98.00;;;;;;5033372;28;20454;-73
2020/12/07 01:42:09;;;;;;;41.93;31.00;;;5.10;98.00;;;;;;5033489;28;20469;-73
2020/12/07 01:44:35;;;;;;;38.93;29.90;;;5.10;97.90;;;;;;5033497;28;20482;-73
2020/12/07 01:47:21;;;;;;;40.23;30.80;;;5.10;97.90;;;;;;5032956;28;21003;-73
2020/12/07 01:49:49;;;;;;;40.20;28.80;;;5.10;98.20;;;;;;5033039;28;20422;-73
2020/12/07 01:52:16;;;;;;;45.17;31.17;;;5.10;97.80;;;;;;5033251;28;20449;-73
2020/12/07 01:54:43;;;;;;;43.00;31.47;;;5.10;97.80;;;;;;5032894;28;20434;-73
2020/12/07 01:57:09;;;;;;;42.63;31.63;;;5.10;97.80;;;;;;5033144;28;20512;-73
2020/12/07 01:59:35;;;;;;;40.23;32.17;;;5.10;97.70;;;;;;5033208;28;20443;-73
2020/12/07 02:02:01;;;;;;;42.70;31.83;;;5.00;97.80;;;;;;5033154;28;20446;-73
2020/12/07 02:04:28;;;;;;;43.67;31.87;;;5.00;97.70;;;;;;5033076;28;20485;-73
2020/12/07 02:06:55;;;;;;;47.30;32.60;;;5.00;97.90;;;;;;5033049;28;20978;-73
2020/12/07 02:09:26;;;;;;;43.77;32.20;;;5.00;97.80;;;;;;5033140;28;20442;-73
2020/12/07 02:11:52;;;;;;;45.03;32.70;;;5.00;97.70;;;;;;5033095;28;20920;-73
2020/12/07 02:14:18;;;;;;;43.23;32.23;;;5.00;97.60;;;;;;5033070;28;20434;-73
2020/12/07 02:16:44;;;;;;;52.57;33.13;;;5.00;97.70;;;;;;5032963;28;20477;-73
2020/12/07 02:19:10;;;;;;;49.80;35.63;;;5.00;97.70;;;;;;5035281;28;20442;-73
2020/12/07 02:21:38;;;;;;;50.37;35.30;;;5.00;98.00;;;;;;5036846;28;20442;-73
2020/12/07 02:24:04;;;;;;;49.73;35.40;;;5.00;97.70;;;;;;5036692;28;20852;-73
2020/12/07 02:26:30;;;;;;;50.97;33.70;;;4.90;97.60;;;;;;5036663;28;20462;-73
2020/12/07 02:28:56;;;;;;;49.27;35.00;;;5.00;97.70;;;;;;5036600;28;20496;-73
2020/12/07 02:31:22;;;;;;;56.00;35.07;;;5.00;97.70;;;;;;5036545;28;20449;-73
2020/12/07 02:33:49;;;;;;;53.47;36.47;;;4.90;97.70;;;;;;5036550;28;20443;-73
2020/12/07 02:36:15;;;;;;;52.70;37.13;;;4.90;97.60;;;;;;5035937;28;20485;-73
2020/12/07 02:38:42;;;;;;;54.27;36.87;;;4.90;97.70;;;;;;5036473;28;20496;-73
2020/12/07 02:41:08;;;;;;;55.03;36.43;;;4.90;97.80;;;;;;5036355;28;20450;-73
2020/12/07 02:43:34;;;;;;;56.67;36.90;;;4.90;97.70;;;;;;5036331;28;20442;-73
2020/12/07 02:46:02;;;;;;;57.40;38.50;;;4.90;97.60;;;;;;5036117;28;20480;-73
2020/12/07 02:48:28;;;;;;;59.93;38.10;;;4.90;97.70;;;;;;5036261;28;20490;-73
2020/12/07 02:50:54;;;;;;;52.90;36.70;;;4.90;97.70;;;;;;5036188;28;20446;-73
2020/12/07 02:53:21;;;;;;;60.13;38.20;;;4.90;97.70;;;;;;5036257;28;20446;-73
2020/12/07 02:55:48;;;;;;;56.67;35.70;;;4.80;97.60;;;;;;5035986;28;20473;-73
2020/12/07 02:58:14;;;;;;;60.10;38.43;;;4.80;97.60;;;;;;5036041;28;20445;-73
2020/12/07 03:00:40;;;;;;;53.13;35.57;;;4.80;97.60;;;;;;5036064;28;20569;-73
2020/12/07 03:03:06;;;;;;;57.03;36.13;;;4.80;97.70;;;;;;5035688;28;20508;-73
2020/12/07 03:05:32;;;;;;;51.57;34.60;;;4.80;97.70;;;;;;5036690;28;20489;-73
2020/12/07 03:07:58;;;;;;;58.83;36.13;;;4.90;97.90;;;;;;5035778;28;20470;-73
2020/12/07 03:10:25;;;;;;;61.73;36.13;;;4.90;97.80;;;;;;5035877;28;20446;-73
2020/12/07 03:12:52;;;;;;;60.07;35.93;;;4.90;97.70;;;;;;5035821;28;20441;-73
2020/12/07 03:15:18;;;;;;;61.33;35.37;;;4.90;97.60;;;;;;5035785;28;20779;-73
2020/12/07 03:17:44;;;;;;;55.67;34.90;;;4.80;97.70;;;;;;5035664;28;20462;-73
2020/12/07 03:20:10;;;;;;;55.60;33.93;;;4.80;97.80;;;;;;5035419;28;20940;-73
2020/12/07 03:22:36;;;;;;;55.97;35.17;;;4.80;97.70;;;;;;5035388;28;20875;-73
2020/12/07 03:25:03;;;;;;;53.20;34.93;;;4.80;97.70;;;;;;5035518;28;20486;-73
2020/12/07 03:27:29;;;;;;;54.93;35.60;;;4.80;97.80;;;;;;5035525;28;20474;-73
2020/12/07 03:29:56;;;;;;;62.60;37.93;;;4.80;97.90;;;;;;5034953;28;20453;-73
2020/12/07 03:32:22;;;;;;;59.30;36.17;;;4.80;97.80;;;;;;5035153;28;20446;-73
2020/12/07 03:34:48;;;;;;;61.83;35.93;;;4.80;98.00;;;;;;5035401;28;20786;-73
2020/12/07 03:37:15;;;;;;;61.23;37.67;;;4.80;98.10;;;;;;5034935;28;21014;-73
2020/12/07 03:39:41;;;;;;;63.47;38.07;;;4.80;98.00;;;;;;5035298;28;20445;-73
2020/12/07 03:42:07;;;;;;;68.77;40.70;;;4.80;98.00;;;;;;5035292;28;20443;-73
2020/12/07 03:44:33;;;;;;;65.87;39.50;;;4.80;98.00;;;;;;5035181;28;20478;-73
2020/12/07 03:47:01;;;;;;;68.70;41.50;;;4.90;98.00;;;;;;5035163;28;20516;-73
2020/12/07 03:49:27;;;;;;;64.63;39.20;;;4.90;98.00;;;;;;5035153;28;20442;-72
2020/12/07 03:51:53;;;;;;;57.03;37.47;;;4.90;97.90;;;;;;5034806;28;20940;-72
2020/12/07 03:54:19;;;;;;;63.83;39.27;;;5.00;97.90;;;;;;5035072;28;20450;-72
2020/12/07 03:56:45;;;;;;;74.93;42.57;;;5.00;97.80;;;;;;5035307;28;20458;-72
2020/12/07 03:59:11;;;;;;;65.87;41.17;;;5.00;97.90;;;;;;5034612;28;20446;-72
2020/12/07 04:01:38;;;;;;;65.30;39.67;;;5.00;98.00;;;;;;5034876;28;20809;-72
2020/12/07 04:04:07;;;;;;;67.43;40.70;;;4.90;98.20;;;;;;5034931;28;20446;-72
2020/12/07 04:06:36;;;;;;;70.70;41.77;;;5.00;98.00;;;;;;5034475;28;20968;-72
2020/12/07 04:09:02;;;;;;;62.90;38.60;;;4.90;97.90;;;;;;5034679;28;20470;-72
2020/12/07 04:11:28;;;;;;;67.07;42.90;;;5.00;98.00;;;;;;5034404;28;20963;-73
2020/12/07 04:13:55;;;;;;;73.53;41.10;;;4.90;98.00;;;;;;5034763;28;20892;-72
2020/12/07 04:16:26;;;;;;;60.80;38.20;;;5.00;98.10;;;;;;5034562;28;20470;-72
2020/12/07 04:18:52;;;;;;;63.70;37.90;;;5.00;98.10;;;;;;5034293;28;20920;-73
2020/12/07 04:21:19;;;;;;;58.40;36.70;;;5.00;98.00;;;;;;5034501;28;20447;-72
2020/12/07 04:23:45;;;;;;;54.43;36.50;;;5.00;97.90;;;;;;5034726;28;20439;-72
2020/12/07 04:26:11;;;;;;;54.40;33.87;;;5.00;97.90;;;;;;5034295;28;20887;-73
2020/12/07 04:28:37;;;;;;;65.33;38.67;;;4.90;97.80;;;;;;5034353;28;20496;-72
2020/12/07 04:31:04;;;;;;;53.47;33.23;;;4.90;98.00;;;;;;5034012;28;20967;-72
2020/12/07 04:33:30;;;;;;;59.40;35.40;;;4.90;98.00;;;;;;5034314;28;20466;-72
2020/12/07 04:35:56;;;;;;;65.63;35.80;;;4.90;97.90;;;;;;5034064;28;20454;-73
2020/12/07 04:38:23;;;;;;;60.80;35.60;;;4.90;98.00;;;;;;5034194;28;20634;-73
2020/12/07 04:40:50;;;;;;;61.97;36.67;;;4.90;98.00;;;;;;5034138;28;20443;-72
2020/12/07 04:43:17;;;;;;;62.63;36.53;;;4.90;97.90;;;;;;5033236;28;20449;-72
2020/12/07 04:45:43;;;;;;;55.97;36.90;;;4.90;97.80;;;;;;5034023;28;20485;-72
2020/12/07 04:48:11;;;;;;;55.93;36.23;;;4.90;97.90;;;;;;5033917;28;20520;-73
2020/12/07 04:50:38;;;;;;;59.70;37.10;;;4.90;98.00;;;;;;5034035;28;20449;-73
2020/12/07 04:53:04;;;;;;;58.27;36.67;;;4.80;97.90;;;;;;5033950;28;20447;-73
2020/12/07 04:55:31;;;;;;;52.63;34.50;;;4.80;97.90;;;;;;5034260;28;20439;-73
2020/12/07 04:57:57;;;;;;;58.77;35.63;;;4.80;98.00;;;;;;5034227;28;20466;-73
2020/12/07 05:00:25;;;;;;;56.77;36.67;;;4.80;98.10;;;;;;5033892;28;20504;-73
2020/12/07 05:02:53;;;;;;;57.87;35.00;;;4.80;98.20;;;;;;5033789;28;20445;-73
2020/12/07 05:05:20;;;;;;;63.83;37.77;;;4.80;98.10;;;;;;5033765;28;20481;-73
2020/12/07 05:07:50;;;;;;;59.37;37.73;;;4.80;98.20;;;;;;5033652;28;20513;-73
2020/12/07 05:10:23;;;;;;;58.50;37.67;;;4.70;98.10;;;;;;5033383;28;20459;-73
2020/12/07 05:12:56;;;;;;;66.37;39.70;;;4.70;98.00;;;;;;5033777;28;20438;-73
2020/12/07 05:15:23;;;;;;;52.70;36.47;;;4.80;98.00;;;;;;5033650;28;20434;-73
2020/12/07 05:17:57;;;;;;;59.57;39.20;;;4.80;97.80;;;;;;5033552;28;20500;-73
2020/12/07 05:20:24;;;;;;;65.87;39.57;;;4.80;97.70;;;;;;5033554;28;20433;-73
2020/12/07 05:22:50;;;;;;;54.77;37.73;;;4.80;97.80;;;;;;5033780;28;20442;-73
2020/12/07 05:25:17;;;;;;;55.83;37.70;;;4.70;97.60;;;;;;5033410;28;20482;-73
2020/12/07 05:27:46;;;;;;;59.67;36.73;;;4.80;97.70;;;;;;5033332;28;20470;-73
2020/12/07 05:30:20;;;;;;;58.93;37.50;;;4.70;97.60;;;;;;5033479;28;20451;-70
2020/12/07 05:32:47;;;;;;;60.77;38.43;;;4.70;97.60;;;;;;5033447;28;20480;-70
2020/12/07 05:35:13;;;;;;;52.23;37.43;;;4.70;97.80;;;;;;5033250;28;20465;-70
2020/12/07 05:37:39;;;;;;;59.63;40.13;;;4.60;97.80;;;;;;5033338;28;20459;-70
2020/12/07 05:40:07;;;;;;;53.70;35.80;;;4.70;97.80;;;;;;5033435;28;20473;-71
2020/12/07 05:42:34;;;;;;;55.83;37.80;;;4.70;97.70;;;;;;5033479;28;20446;-71
2020/12/07 05:45:01;;;;;;;59.87;39.93;;;4.70;97.50;;;;;;5033199;28;20544;-71
2020/12/07 05:47:31;;;;;;;54.43;36.97;;;4.70;97.40;;;;;;5033279;28;20474;-71
2020/12/07 05:49:58;;;;;;;57.83;39.30;;;4.70;97.40;;;;;;5032996;28;20952;-72
2020/12/07 05:52:48;;;;;;;58.90;38.80;;;4.70;97.30;;;;;;5033093;28;20944;-72
2020/12/07 05:55:15;;;;;;;55.73;38.30;;;4.70;97.20;;;;;;5037087;28;20476;-71
2020/12/07 05:57:48;;;;;;;53.70;37.30;;;4.70;97.20;;;;;;5037609;28;20458;-71
2020/12/07 06:00:20;;;;;;;54.40;36.13;;;4.70;97.50;;;;;;5037258;28;20450;-71
2020/12/07 06:02:51;;;;;;;59.63;38.00;;;4.70;97.20;;;;;;5037282;28;20429;-71
2020/12/07 06:05:18;;;;;;;53.83;36.30;;;4.70;97.00;;;;;;5037043;28;20509;-71
2020/12/07 06:07:49;;;;;;;57.70;37.43;;;4.70;97.10;;;;;;5037055;28;20470;-71
2020/12/07 06:10:17;;;;;;;50.23;35.40;;;4.70;97.20;;;;;;5036740;28;20897;-71
2020/12/07 06:12:48;;;;;;;58.47;37.50;;;4.70;97.10;;;;;;5037071;28;20477;-71
2020/12/07 06:15:18;;;;;;;61.00;37.00;;;4.70;97.00;;;;;;5036971;28;20426;-71
2020/12/07 06:17:47;;;;;;;51.90;34.47;;;4.70;97.00;;;;;;5036558;28;21004;-71
2020/12/07 06:20:27;;;;;;;53.47;35.47;;;4.80;97.10;;;;;;5036972;28;20449;-71
2020/12/07 06:22:56;;;;;;;50.20;34.50;;;4.80;96.90;;;;;;5037166;28;20440;-71
2020/12/07 06:25:25;;;;;;;54.00;35.40;;;4.80;97.00;;;;;;5036488;28;20987;-71
2020/12/07 06:27:51;;;;;;;54.20;36.27;;;4.80;97.00;;;;;;5036415;28;21004;-71
2020/12/07 06:30:19;;;;;;;52.43;34.27;;;4.80;97.10;;;;;;5036705;28;20543;-71
2020/12/07 06:32:50;;;;;;;53.33;35.40;;;4.80;97.00;;;;;;5036628;28;20474;-71
2020/12/07 06:35:16;;;;;;;49.97;33.43;;;4.80;97.10;;;;;;5036535;28;20503;-71
2020/12/07 06:37:46;;;;;;;55.87;34.87;;;4.80;96.90;;;;;;5036578;28;20466;-71
2020/12/07 06:40:15;;;;;;;53.13;34.07;;;4.80;96.80;;;;;;5036519;28;20449;-71
2020/12/07 06:42:42;;;;;;;55.00;35.30;;;4.80;96.80;;;;;;5036457;28;20449;-71
2020/12/07 06:45:19;;;;;;;59.37;37.33;;;4.70;96.80;;;;;;5036333;28;20485;-71
2020/12/07 06:47:48;;;;;;;49.33;35.30;;;4.80;97.10;;;;;;5036342;28;20567;-71
2020/12/07 06:50:17;;;;;;;53.67;35.73;;;4.70;97.00;;;;;;5036448;28;20465;-71
2020/12/07 06:52:45;;;;;;;55.67;35.53;;;4.70;96.90;;;;;;5036398;28;20446;-71
2020/12/07 06:55:13;;;;;;;55.50;35.63;;;4.70;97.00;;;;;;5036233;28;20837;-71
2020/12/07 06:57:42;;;;;;;52.10;35.10;;;4.70;97.00;;;;;;5036275;28;20457;-71
2020/12/07 07:00:11;;;;;;;52.50;36.30;;;4.70;97.00;;;;;;5036020;28;20944;-71
2020/12/07 07:02:39;;;;;;;55.00;35.13;;;4.70;97.00;;;;;;5036200;28;20450;-71
2020/12/07 07:05:06;;;;;;;54.77;37.00;;;4.80;97.20;;;;;;5034980;28;20493;-71
2020/12/07 07:07:32;;;;;;;59.13;35.67;;;4.80;97.20;;;;;;5036027;28;20459;-71
2020/12/07 07:10:00;;;;;;;53.50;34.43;;;4.80;97.10;;;;;;5036113;28;20446;-71
2020/12/07 07:12:27;;;;;;;56.93;34.73;;;4.80;97.10;;;;;;5036290;28;20502;-71
2020/12/07 07:14:56;;;;;;;56.40;35.73;;;4.80;97.00;;;;;;5035958;28;20441;-71
2020/12/07 07:17:23;;;;;;;56.80;34.20;;;4.80;97.00;;;;;;5036066;28;20544;-71
2020/12/07 07:19:49;;;;;;;55.50;34.93;;;4.90;97.10;;;;;;5035813;28;20539;-71
2020/12/07 07:22:16;;;;;;;51.17;34.90;;;4.90;96.90;;;;;;5035759;28;20438;-71
2020/12/07 07:30:11;;;;;;;56.13;34.40;;;4.90;96.80;;;;;;5036079;28;20421;-71
2020/12/07 07:32:40;;;;;;;52.77;33.20;;;4.80;96.90;;;;;;5035934;28;20442;-71
2020/12/07 07:35:06;;;;;;;52.63;33.03;;;4.90;96.80;;;;;;5035325;28;20450;-71
2020/12/07 07:37:32;;;;;;;52.73;33.97;;;4.90;96.60;;;;;;5035447;28;20459;-71
2020/12/07 07:40:00;;;;;;;45.93;32.73;;;4.90;96.70;;;;;;5035526;28;20426;-71
2020/12/07 07:42:29;;;;;;;47.73;31.13;;;4.90;96.50;;;;;;5035315;28;20469;-71
2020/12/07 07:44:56;;;;;;;46.73;32.13;;;4.90;96.30;;;;;;5034910;28;21028;-71
2020/12/07 07:47:26;;;;;;;53.50;32.23;;;4.90;96.20;;;;;;5035428;28;20474;-71
2020/12/07 07:50:17;;;;;;;53.53;33.20;;;4.90;96.30;;;;;;5035371;28;20431;-71
2020/12/07 08:15:31;;;;;;;44.73;28.17;;;5.00;96.70;;;;;;5001635;28;20473;-71
2020/12/07 08:17:59;;;;;;;47.07;30.30;;;5.00;96.60;;;;;;5034907;28;20466;-71
2020/12/07 08:20:27;;;;;;;45.70;29.27;;;5.00;96.60;;;;;;5035097;28;20430;-71
2020/12/07 08:22:58;;;;;;;43.40;29.03;;;5.10;96.70;;;;;;5034848;28;20450;-72
2020/12/07 08:25:46;;;;;;;41.40;28.80;;;5.10;96.70;;;;;;5034575;28;20474;-71
2020/12/07 08:28:31;;;;;;;40.60;28.80;;;5.10;96.40;;;;;;5034564;28;20468;-72
2020/12/07 08:31:04;;;;;;;38.33;28.20;;;5.10;96.40;;;;;;5034232;28;20897;-71
2020/12/07 08:33:32;;;;;;;49.40;28.93;;;5.20;96.40;;;;;;5034616;28;20438;-72
2020/12/07 08:36:00;;;;;;;40.00;27.73;;;5.20;96.10;;;;;;5034004;28;20459;-72
2020/12/07 08:38:29;;;;;;;47.53;28.97;;;5.20;96.00;;;;;;5034324;28;20450;-72
2020/12/07 08:41:07;;;;;;;37.97;28.20;;;5.30;96.10;;;;;;5034186;28;20430;-72
2020/12/07 08:43:33;;;;;;;40.37;26.90;;;5.30;96.10;;;;;;5034391;28;20427;-72
2020/12/07 08:46:00;;;;;;;40.27;27.10;;;5.30;96.10;;;;;;5033998;28;20473;-73
2020/12/07 08:48:27;;;;;;;41.23;26.67;;;5.40;96.00;;;;;;5033951;28;20857;-72
2020/12/07 08:50:54;;;;;;;42.57;27.50;;;5.40;96.00;;;;;;5034102;28;20442;-72
2020/12/07 08:53:20;;;;;;;39.40;26.50;;;5.30;95.80;;;;;;5034098;28;20474;-72
2020/12/07 08:55:47;;;;;;;45.77;27.60;;;5.30;95.70;;;;;;5034006;28;20430;-72
2020/12/07 08:58:14;;;;;;;40.17;27.40;;;5.30;95.60;;;;;;5033347;28;20474;-72
2020/12/07 09:00:40;;;;;;;40.70;27.37;;;5.30;95.60;;;;;;5033994;28;20423;-73
2020/12/07 09:03:06;;;;;;;39.57;26.50;;;5.40;95.40;;;;;;5033794;28;20426;-72
2020/12/07 09:05:33;;;;;;;40.00;26.63;;;5.30;95.40;;;;;;5033510;28;20874;-72
2020/12/07 09:07:59;;;;;;;44.13;27.70;;;5.30;95.60;;;;;;5033771;28;20462;-72
2020/12/07 09:10:26;;;;;;;38.60;26.03;;;5.40;95.70;;;;;;5033673;28;20459;-72
2020/12/07 09:12:52;;;;;;;40.00;25.40;;;5.30;95.50;;;;;;5033791;28;20827;-72
2020/12/07 09:15:18;;;;;;;41.10;25.50;;;5.40;95.50;;;;;;5033762;28;20785;-72
2020/12/07 09:17:44;;;;;;;41.40;26.67;;;5.30;95.40;;;;;;5033783;28;20462;-73
2020/12/07 09:20:11;;;;;;;36.90;25.20;;;5.40;95.30;;;;;;5033683;28;20438;-73
2020/12/07 09:22:38;;;;;;;40.57;25.80;;;5.30;95.60;;;;;;5033356;28;20454;-72
2020/12/07 09:25:04;;;;;;;36.97;24.77;;;5.30;95.30;;;;;;5033461;28;20454;-72
2020/12/07 09:27:30;;;;;;;36.90;25.10;;;5.40;95.30;;;;;;5033226;28;20466;-72
2020/12/07 09:29:57;;;;;;;37.10;25.67;;;5.40;95.00;;;;;;5033090;28;20935;-72
2020/12/07 09:32:23;;;;;;;37.57;24.17;;;5.40;95.20;;;;;;5033572;28;20427;-72
2020/12/07 09:34:49;;;;;;;36.30;25.00;;;5.40;95.40;;;;;;5033431;28;20451;-72
2020/12/07 09:37:15;;;;;;;39.00;25.40;;;5.40;95.40;;;;;;5033270;28;20486;-72
2020/12/07 09:39:42;;;;;;;40.30;26.03;;;5.40;95.50;;;;;;5034315;28;20450;-72
2020/12/07 09:42:08;;;;;;;37.30;25.07;;;5.50;95.70;;;;;;5033452;28;20426;-72
2020/12/07 09:44:35;;;;;;;41.17;26.87;;;5.60;95.60;;;;;;5033172;28;20795;-72
2020/12/07 09:47:01;;;;;;;35.60;24.70;;;5.60;95.50;;;;;;5033307;28;20498;-72
2020/12/07 09:49:27;;;;;;;36.27;24.07;;;5.70;95.30;;;;;;5033338;28;20905;-72
2020/12/07 09:51:53;;;;;;;40.60;26.17;;;5.70;95.20;;;;;;5033399;28;20442;-72
2020/12/07 09:54:19;;;;;;;37.63;24.00;;;5.80;95.30;;;;;;5033444;28;20419;-72
2020/12/07 09:56:46;;;;;;;42.10;26.20;;;5.80;95.10;;;;;;5033185;28;20462;-72
2020/12/07 09:59:12;;;;;;;38.33;25.70;;;5.90;95.00;;;;;;5033487;28;20476;-72
2020/12/07 10:01:39;;;;;;;42.50;27.63;;;6.00;95.00;;;;;;5033096;28;20940;-72
2020/12/07 10:04:05;;;;;;;30.80;21.80;;;6.00;94.80;;;;;;5033538;28;20427;-72
2020/12/07 10:06:31;;;;;;;33.20;22.57;;;6.00;94.80;;;;;;5033388;28;20494;-72
2020/12/07 10:08:57;;;;;;;33.67;21.23;;;6.10;95.00;;;;;;5033289;28;20505;-72
2020/12/07 10:11:23;;;;;;;34.30;21.53;;;6.10;94.50;;;;;;5032953;28;20899;-72
2020/12/07 10:13:50;;;;;;;36.67;21.77;;;6.20;94.30;;;;;;5033259;28;20854;-72
2020/12/07 10:16:17;;;;;;;30.80;20.60;;;6.10;94.00;;;;;;5033658;28;20463;-73
2020/12/07 10:18:43;;;;;;;30.17;21.37;;;6.20;94.00;;;;;;5033236;28;20422;-72
2020/12/07 10:21:09;;;;;;;30.03;19.87;;;6.20;93.90;;;;;;5033050;28;20450;-72
2020/12/07 10:23:35;;;;;;;32.10;20.10;;;6.20;93.90;;;;;;5033054;28;20461;-72
2020/12/07 10:26:01;;;;;;;26.87;18.30;;;6.20;93.90;;;;;;5032955;28;20466;-72
2020/12/07 10:28:28;;;;;;;29.87;19.47;;;6.20;93.90;;;;;;5032948;28;20811;-72
2020/12/07 10:30:55;;;;;;;28.60;17.57;;;6.20;94.00;;;;;;5032574;28;20963;-72
2020/12/07 10:33:21;;;;;;;26.90;19.17;;;6.30;93.80;;;;;;5032888;28;20476;-71
2020/12/07 10:35:47;;;;;;;27.13;17.97;;;6.30;93.60;;;;;;5032656;28;20442;-73
2020/12/07 10:38:13;;;;;;;24.47;17.60;;;6.30;93.70;;;;;;5032623;28;21010;-74
2020/12/07 10:40:40;;;;;;;26.43;17.43;;;6.30;93.50;;;;;;5034388;28;20431;-73
2020/12/07 10:43:06;;;;;;;27.20;16.90;;;6.30;93.20;;;;;;5036523;28;20426;-72
2020/12/07 10:45:32;;;;;;;29.47;17.10;;;6.30;93.20;;;;;;5036660;28;20489;-72
2020/12/07 10:47:59;;;;;;;30.37;18.07;;;6.30;93.20;;;;;;5036377;28;20470;-72
2020/12/07 10:50:25;;;;;;;28.37;17.93;;;6.40;93.30;;;;;;5036073;28;20936;-72
2020/12/07 10:52:51;;;;;;;28.00;19.13;;;6.40;93.30;;;;;;5037042;28;20451;-72
2020/12/07 10:55:18;;;;;;;27.50;18.80;;;6.50;93.30;;;;;;5036230;28;20449;-73
2020/12/07 10:57:44;;;;;;;25.90;18.80;;;6.50;93.30;;;;;;5036232;28;20466;-72
2020/12/07 11:00:10;;;;;;;26.93;20.53;;;6.50;93.40;;;;;;5036059;28;20431;-72
2020/12/07 11:02:36;;;;;;;34.27;20.23;;;6.60;93.40;;;;;;5036301;28;20442;-73
2020/12/07 11:05:03;;;;;;;30.50;20.37;;;6.60;93.30;;;;;;5036161;28;20435;-73
2020/12/07 11:07:30;;;;;;;27.50;17.93;;;6.60;93.10;;;;;;5035903;28;20994;-74
2020/12/07 11:09:56;;;;;;;31.40;20.83;;;6.60;93.20;;;;;;5036442;28;20447;-74
2020/12/07 11:12:24;;;;;;;28.00;19.60;;;6.60;93.20;;;;;;5035716;28;20916;-74
2020/12/07 11:14:50;;;;;;;27.17;19.43;;;6.60;93.10;;;;;;5035982;28;20431;-74
2020/12/07 11:17:16;;;;;;;27.90;17.57;;;6.60;93.00;;;;;;5035887;28;20585;-74
2020/12/07 11:19:44;;;;;;;27.60;17.97;;;6.70;93.00;;;;;;5035528;28;20504;-74
2020/12/07 11:22:11;;;;;;;26.50;17.90;;;6.70;92.70;;;;;;5035532;28;20465;-74
2020/12/07 11:24:38;;;;;;;26.20;18.47;;;6.70;92.80;;;;;;5035524;28;20443;-72
2020/12/07 11:27:05;;;;;;;25.07;16.70;;;6.70;92.80;;;;;;5035507;28;20494;-72
2020/12/07 11:29:31;;;;;;;25.10;17.33;;;6.70;92.90;;;;;;5036015;28;20457;-72
2020/12/07 11:31:58;;;;;;;20.70;16.03;;;6.70;93.00;;;;;;5035774;28;20449;-71
2020/12/07 11:34:24;;;;;;;27.37;18.67;;;6.70;92.80;;;;;;5035786;28;20449;-71
2020/12/07 11:36:51;;;;;;;27.10;16.90;;;6.80;92.80;;;;;;5035271;28;20489;-71
2020/12/07 11:42:09;;;;;;;23.93;14.87;;;6.80;92.70;;;;;;5032200;28;20929;-73
2020/12/07 11:44:35;;;;;;;22.77;15.63;;;6.90;92.60;;;;;;5038346;28;20430;-75
2020/12/07 11:47:03;;;;;;;27.80;16.60;;;6.90;92.70;;;;;;5035453;28;20494;-72
2020/12/07 11:49:30;;;;;;;24.27;16.30;;;6.90;92.60;;;;;;5035691;28;20454;-71
2020/12/07 11:51:56;;;;;;;27.23;17.80;;;7.00;92.50;;;;;;5036579;28;20835;-72
2020/12/07 11:54:23;;;;;;;27.30;15.80;;;7.00;92.40;;;;;;5035228;28;20453;-71
2020/12/07 11:56:49;;;;;;;22.30;16.30;;;7.00;92.50;;;;;;5035393;28;20581;-71
2020/12/07 11:59:16;;;;;;;26.13;15.67;;;7.10;92.50;;;;;;5035500;28;20484;-71
2020/12/07 12:01:42;;;;;;;23.60;15.10;;;7.10;92.50;;;;;;5035010;28;20952;-71
2020/12/07 12:04:08;;;;;;;21.97;15.00;;;7.10;92.50;;;;;;5035167;28;20439;-71
2020/12/07 12:06:37;;;;;;;22.73;15.40;;;7.10;92.30;;;;;;5035069;28;20482;-73
2020/12/07 12:09:05;;;;;;;21.97;15.50;;;7.10;92.50;;;;;;5034940;28;20801;-72
2020/12/07 12:11:35;;;;;;;23.57;15.33;;;7.10;92.60;;;;;;5035108;28;20927;-72
2020/12/07 12:14:02;;;;;;;22.47;15.30;;;7.10;92.70;;;;;;5036334;28;20781;-72
2020/12/07 12:16:29;;;;;;;20.20;14.87;;;7.10;92.80;;;;;;5035590;28;20466;-72
2020/12/07 12:18:55;;;;;;;26.70;16.20;;;7.10;92.90;;;;;;5035271;28;20530;-72
2020/12/07 12:21:22;;;;;;;21.37;14.63;;;7.20;93.00;;;;;;5035474;28;20447;-72
2020/12/07 12:23:49;;;;;;;23.23;16.33;;;7.20;93.00;;;;;;5035470;28;20465;-72
2020/12/07 12:26:16;;;;;;;24.57;16.43;;;7.20;93.00;;;;;;5035084;28;20897;-72
2020/12/07 12:28:43;;;;;;;21.60;15.33;;;7.20;93.00;;;;;;5035195;28;20466;-72
2020/12/07 12:31:10;;;;;;;21.80;14.70;;;7.30;93.00;;;;;;5035074;28;20927;-72
2020/12/07 12:33:36;;;;;;;22.57;15.63;;;7.30;93.00;;;;;;5035196;28;20450;-72
2020/12/07 12:36:02;;;;;;;23.23;17.33;;;7.30;93.10;;;;;;5034701;28;20455;-72
2020/12/07 12:38:29;;;;;;;27.27;17.27;;;7.40;93.20;;;;;;5034828;28;20454;-72
2020/12/07 12:40:55;;;;;;;21.60;16.20;;;7.40;93.30;;;;;;5034874;28;20451;-72
2020/12/07 12:43:21;;;;;;;21.17;15.77;;;7.50;93.30;;;;;;5035174;28;20446;-72
2020/12/07 12:45:48;;;;;;;18.73;14.47;;;7.50;93.20;;;;;;5034842;28;20482;-72
2020/12/07 12:48:14;;;;;;;21.10;16.90;;;7.50;93.10;;;;;;5034828;28;20466;-72
2020/12/07 12:50:41;;;;;;;22.27;16.20;;;7.60;93.00;;;;;;5034678;28;20438;-72
2020/12/07 12:53:07;;;;;;;20.50;15.33;;;7.60;92.80;;;;;;5034240;28;20796;-72
2020/12/07 12:55:33;;;;;;;25.47;15.33;;;7.60;92.80;;;;;;5034917;28;20450;-72
2020/12/07 12:57:59;;;;;;;23.67;15.63;;;7.50;92.80;;;;;;5034487;28;20466;-72
2020/12/07 13:00:25;;;;;;;19.47;15.70;;;7.60;92.90;;;;;;5034431;28;20427;-72
2020/12/07 13:02:52;;;;;;;19.47;15.03;;;7.60;92.90;;;;;;5033711;28;20813;-72
2020/12/07 13:05:18;;;;;;;18.73;14.10;;;7.60;92.90;;;;;;5034361;28;20450;-72
2020/12/07 13:07:45;;;;;;;21.10;14.37;;;7.60;92.60;;;;;;5034108;28;20467;-72